createdAt,value
2022-09-03T00:00:08.477Z,2.40
2022-09-03T00:02:46.373Z,2.78
2022-09-03T00:05:23.403Z,3.63
2022-09-03T00:08:15.574Z,3.03
2022-09-03T00:10:58.486Z,3.28
2022-09-03T00:13:53.371Z,2.75
2022-09-03T00:16:21.733Z,3.75
2022-09-03T00:18:58.989Z,3.15
2022-09-03T00:21:51.702Z,3.60
2022-09-03T00:24:22.549Z,3.70
2022-09-03T00:26:54.628Z,3.47
2022-09-03T00:29:28.507Z,3.25
2022-09-03T00:31:58.315Z,2.53
2022-09-03T00:34:34.527Z,4.05
2022-09-03T00:39:31.171Z,3.70
2022-09-03T00:42:10.465Z,3.00
2022-09-03T00:44:45.602Z,3.88
2022-09-03T00:47:28.309Z,3.92
2022-09-03T00:50:07.706Z,3.83
2022-09-03T00:52:57.255Z,4.72
2022-09-03T00:55:31.931Z,4.00
2022-09-03T00:58:28.068Z,3.90
2022-09-03T01:00:55.861Z,3.53
2022-09-03T01:03:26.346Z,3.10
2022-09-03T01:06:17.194Z,3.45
2022-09-03T01:09:05.879Z,3.67
2022-09-03T01:11:38.863Z,4.03
2022-09-03T01:14:35.630Z,2.67
2022-09-03T01:17:51.117Z,3.13
2022-09-03T01:20:52.559Z,4.07
2022-09-03T01:23:51.116Z,2.70
2022-09-03T01:26:48.426Z,2.97
2022-09-03T01:29:28.357Z,3.33
2022-09-03T01:31:59.509Z,4.43
2022-09-03T01:34:42.132Z,5.60
2022-09-03T01:37:40.631Z,5.22
2022-09-03T01:40:19.884Z,4.38
2022-09-03T01:43:05.780Z,6.00
2022-09-03T01:45:45.125Z,5.00
2022-09-03T01:48:42.124Z,5.45
2022-09-03T01:51:45.279Z,4.72
2022-09-03T01:54:45.598Z,5.82
2022-09-03T01:57:35.718Z,4.95
2022-09-03T02:00:13.623Z,4.72
2022-09-03T02:02:42.273Z,5.60
2022-09-03T02:05:14.909Z,5.43
2022-09-03T02:07:48.117Z,5.15
2022-09-03T02:10:20.558Z,5.40
2022-09-03T02:12:53.535Z,5.28
2022-09-03T02:15:22.154Z,5.63
2022-09-03T02:17:54.029Z,5.30
2022-09-03T02:20:22.200Z,6.30
2022-09-03T02:22:49.309Z,5.53
2022-09-03T02:25:17.188Z,5.30
2022-09-03T02:27:44.507Z,5.47
2022-09-03T02:30:11.996Z,5.18
2022-09-03T02:32:39.048Z,6.10
2022-09-03T02:35:07.030Z,5.75
2022-09-03T02:37:34.949Z,6.25
2022-09-03T02:40:06.542Z,7.30
2022-09-03T02:42:33.714Z,6.25
2022-09-03T02:45:28.813Z,6.05
2022-09-03T02:47:57.908Z,6.72
2022-09-03T02:50:25.136Z,7.28
2022-09-03T02:52:52.324Z,7.72
2022-09-03T02:55:19.767Z,7.13
2022-09-03T02:57:47.131Z,7.63
2022-09-03T03:00:14.321Z,7.72
2022-09-03T03:02:43.212Z,8.13
2022-09-03T03:05:11.347Z,9.05
2022-09-03T03:07:40.475Z,8.35
2022-09-03T03:10:08.579Z,8.40
2022-09-03T03:12:35.570Z,8.85
2022-09-03T03:15:02.552Z,8.13
2022-09-03T03:17:29.631Z,8.00
2022-09-03T03:19:56.604Z,9.38
2022-09-03T03:22:23.608Z,9.43
2022-09-03T03:24:50.784Z,9.25
2022-09-03T03:27:18.943Z,9.75
2022-09-03T03:29:46.036Z,9.48
2022-09-03T03:32:13.067Z,9.30
2022-09-03T03:34:40.097Z,8.68
2022-09-03T03:37:07.126Z,9.80
2022-09-03T03:39:34.204Z,10.55
2022-09-03T03:42:02.451Z,9.73
2022-09-03T03:44:32.356Z,9.15
2022-09-03T03:46:59.366Z,9.25
2022-09-03T03:49:26.324Z,8.68
2022-09-03T03:51:53.241Z,9.40
2022-09-03T03:54:20.269Z,9.98
2022-09-03T03:56:55.232Z,9.93
2022-09-03T03:59:22.974Z,10.13
2022-09-03T04:01:50.716Z,8.27
2022-09-03T04:04:17.852Z,9.05
2022-09-03T04:06:45.049Z,8.15
2022-09-03T04:09:12.088Z,8.30
2022-09-03T04:11:39.236Z,9.07
2022-09-03T04:14:06.224Z,7.63
2022-09-03T04:16:33.265Z,8.73
2022-09-03T04:19:00.386Z,7.70
2022-09-03T04:21:28.879Z,8.57
2022-09-03T04:23:56.151Z,9.27
2022-09-03T04:26:29.510Z,9.00
2022-09-03T04:28:56.807Z,9.10
2022-09-03T04:31:24.904Z,9.10
2022-09-03T04:33:51.901Z,8.93
2022-09-03T04:36:20.626Z,8.80
2022-09-03T04:38:50.308Z,10.02
2022-09-03T04:41:18.884Z,9.85
2022-09-03T04:43:46.070Z,9.88
2022-09-03T04:46:18.743Z,9.82
2022-09-03T04:48:48.459Z,9.00
2022-09-03T04:51:16.852Z,9.85
2022-09-03T04:53:45.963Z,9.80
2022-09-03T04:56:23.926Z,9.90
2022-09-03T04:58:55.196Z,8.90
2022-09-03T05:01:23.971Z,9.02
2022-09-03T05:03:52.328Z,9.68
2022-09-03T05:06:19.607Z,9.45
2022-09-03T05:08:50.980Z,10.38
2022-09-03T05:11:18.351Z,10.23
2022-09-03T05:13:49.107Z,10.57
2022-09-03T05:16:16.653Z,9.88
2022-09-03T05:18:45.133Z,10.55
2022-09-03T05:21:13.767Z,9.68
2022-09-03T05:23:42.579Z,11.27
2022-09-03T05:26:11.426Z,9.63
2022-09-03T05:28:40.002Z,10.18
2022-09-03T05:31:08.813Z,10.73
2022-09-03T05:33:36.726Z,10.55
2022-09-03T05:36:08.809Z,9.20
2022-09-03T05:38:35.902Z,10.23
2022-09-03T05:41:04.148Z,9.63
2022-09-03T05:43:31.370Z,10.52
2022-09-03T05:46:00.512Z,10.38
2022-09-03T05:48:31.314Z,10.95
2022-09-03T05:51:08.373Z,10.40
2022-09-03T05:53:36.750Z,10.05
2022-09-03T05:56:06.290Z,11.23
2022-09-03T05:58:39.371Z,10.40
2022-09-03T06:01:14.341Z,9.82
2022-09-03T06:03:42.223Z,9.30
2022-09-03T06:06:09.530Z,10.07
2022-09-03T06:08:38.665Z,10.07
2022-09-03T06:11:06.508Z,9.90
2022-09-03T06:13:33.717Z,10.27
2022-09-03T06:16:01.752Z,10.23
2022-09-03T06:18:28.929Z,11.20
2022-09-03T06:21:05.920Z,10.05
2022-09-03T06:23:33.382Z,11.15
2022-09-03T06:26:05.562Z,11.05
2022-09-03T06:28:34.949Z,10.68
2022-09-03T06:31:02.855Z,11.65
2022-09-03T06:33:35.084Z,12.43
2022-09-03T06:36:08.641Z,11.55
2022-09-03T06:38:37.059Z,12.15
2022-09-03T06:41:10.258Z,12.25
2022-09-03T06:43:41.496Z,12.90
2022-09-03T06:46:13.028Z,13.18
2022-09-03T06:48:41.046Z,14.02
2022-09-03T06:51:09.975Z,13.27
2022-09-03T06:53:43.999Z,14.45
2022-09-03T06:56:17.054Z,13.85
2022-09-03T06:58:47.730Z,13.90
2022-09-03T07:01:28.364Z,14.52
2022-09-03T07:03:56.675Z,14.77
2022-09-03T07:06:25.267Z,14.70
2022-09-03T07:08:52.391Z,13.25
2022-09-03T07:11:25.484Z,13.95
2022-09-03T07:13:52.999Z,13.50
2022-09-03T07:16:21.607Z,14.75
2022-09-03T07:18:48.811Z,14.25
2022-09-03T07:21:20.254Z,14.27
2022-09-03T07:23:47.927Z,13.90
2022-09-03T07:26:19.985Z,14.25
2022-09-03T07:28:47.217Z,10.63
2022-09-03T07:31:16.194Z,8.48
2022-09-03T07:33:43.312Z,6.78
2022-09-03T07:36:12.455Z,6.85
2022-09-03T07:38:39.577Z,5.10
2022-09-03T07:41:08.106Z,4.43
2022-09-03T07:43:43.455Z,4.28
2022-09-03T07:46:13.171Z,4.88
2022-09-03T07:48:43.979Z,3.40
2022-09-03T07:51:10.916Z,3.83
2022-09-03T07:53:37.992Z,3.20
2022-09-03T07:56:06.334Z,2.97
2022-09-03T07:58:33.809Z,2.40
2022-09-03T08:01:15.279Z,2.15
2022-09-03T08:03:46.754Z,2.30
2022-09-03T08:06:14.397Z,2.30
2022-09-03T08:08:41.769Z,2.40
2022-09-03T08:11:12.630Z,2.33
2022-09-03T08:13:48.137Z,1.98
2022-09-03T08:16:17.009Z,1.63
2022-09-03T08:18:44.188Z,1.02
2022-09-03T08:21:19.838Z,1.42
2022-09-03T08:23:48.046Z,1.73
2022-09-03T08:26:16.354Z,1.42
2022-09-03T08:28:44.230Z,1.45
2022-09-03T08:31:21.467Z,1.75
2022-09-03T08:33:50.860Z,1.90
2022-09-03T08:36:20.554Z,1.95
2022-09-03T08:38:47.630Z,2.10
2022-09-03T08:41:21.563Z,1.25
2022-09-03T08:44:26.595Z,1.30
2022-09-03T08:47:28.382Z,1.15
2022-09-03T08:50:18.304Z,2.00
2022-09-03T08:52:50.823Z,1.38
2022-09-03T08:55:24.423Z,1.27
2022-09-03T08:58:03.935Z,1.25
2022-09-03T09:00:52.462Z,1.08
2022-09-03T09:03:55.506Z,1.20
2022-09-03T09:06:31.669Z,1.20
2022-09-03T09:09:24.827Z,1.30
2022-09-03T09:11:59.452Z,0.80
2022-09-03T09:14:49.996Z,1.27
2022-09-03T09:17:31.219Z,1.00
2022-09-03T09:20:01.445Z,1.27
2022-09-03T09:23:08.067Z,0.47
2022-09-03T09:25:44.028Z,1.00
2022-09-03T09:28:23.212Z,0.75
2022-09-03T09:30:52.133Z,0.80
2022-09-03T09:33:21.068Z,0.65
2022-09-03T09:35:48.321Z,0.70
2022-09-03T09:38:16.538Z,1.48
2022-09-03T09:40:46.036Z,0.63
2022-09-03T09:43:22.050Z,0.90
2022-09-03T09:45:50.759Z,0.70
2022-09-03T09:48:31.564Z,0.45
2022-09-03T09:51:06.244Z,0.63
2022-09-03T09:53:33.324Z,0.50
2022-09-03T09:56:05.001Z,0.22
2022-09-03T09:58:33.701Z,0.35
2022-09-03T10:01:23.344Z,0.30
2022-09-03T10:03:58.924Z,0.20
2022-09-03T10:06:47.699Z,0.15
2022-09-03T10:09:16.049Z,0.20
2022-09-03T10:11:45.999Z,0.30
2022-09-03T10:14:24.575Z,0.40
2022-09-03T10:16:56.168Z,0.38
2022-09-03T10:20:12.851Z,0.30
2022-09-03T10:22:47.130Z,0.35
2022-09-03T10:25:27.091Z,0.40
2022-09-03T10:27:54.564Z,0.28
2022-09-03T10:30:22.535Z,0.35
2022-09-03T10:32:50.059Z,0.30
2022-09-03T10:35:39.514Z,0.20
2022-09-03T10:38:09.982Z,0.38
2022-09-03T10:41:05.474Z,0.63
2022-09-03T10:43:54.232Z,0.10
2022-09-03T10:46:29.753Z,0.10
2022-09-03T10:49:15.628Z,0.10
2022-09-03T10:51:47.474Z,0.10
2022-09-03T10:54:38.013Z,0.10
2022-09-03T10:57:30.396Z,0.10
2022-09-03T11:00:10.869Z,0.20
2022-09-03T11:03:14.095Z,0.20
2022-09-03T11:06:19.776Z,0.10
2022-09-03T11:09:02.107Z,0.10
2022-09-03T11:11:39.334Z,0.10
2022-09-03T11:14:11.948Z,0.10
2022-09-03T11:16:54.106Z,0.10
2022-09-03T11:19:25.308Z,0.10
2022-09-03T11:21:52.291Z,0.10
2022-09-03T11:24:23.562Z,0.10
2022-09-03T11:27:02.590Z,0.20
2022-09-03T11:30:11.425Z,0.10
2022-09-03T11:32:41.463Z,0.10
2022-09-03T11:35:36.351Z,0.10
2022-09-03T11:38:05.112Z,0.10
2022-09-03T11:40:36.572Z,0.10
2022-09-03T11:43:27.991Z,0.35
2022-09-03T11:46:23.718Z,0.10
2022-09-03T11:48:55.403Z,0.10
2022-09-03T11:51:30.068Z,0.10
2022-09-03T11:54:05.408Z,0.13
2022-09-03T11:56:33.570Z,0.10
2022-09-03T11:59:21.961Z,0.00
2022-09-03T12:02:13.129Z,0.10
2022-09-03T12:04:51.802Z,0.10
2022-09-03T12:07:26.212Z,0.10
2022-09-03T12:10:08.866Z,0.10
2022-09-03T12:12:54.913Z,0.10
2022-09-03T12:15:59.625Z,0.10
2022-09-03T12:18:31.319Z,0.05
2022-09-03T12:21:00.024Z,0.08
2022-09-03T12:23:42.314Z,0.10
2022-09-03T12:26:15.465Z,0.10
2022-09-03T12:28:45.304Z,0.10
2022-09-03T12:31:25.328Z,0.10
2022-09-03T12:33:53.878Z,0.10
2022-09-03T12:36:24.320Z,0.20
2022-09-03T12:39:10.877Z,0.10
2022-09-03T12:41:38.488Z,0.10
2022-09-03T12:44:07.383Z,0.10
2022-09-03T12:46:34.965Z,0.10
2022-09-03T12:52:05.473Z,0.05
2022-09-03T12:54:37.985Z,0.10
2022-09-03T12:57:05.000Z,0.00
2022-09-03T12:59:33.349Z,0.10
2022-09-03T13:02:21.858Z,0.20
2022-09-03T13:04:48.932Z,0.10
2022-09-03T13:07:23.765Z,0.00
2022-09-03T13:09:50.689Z,0.10
2022-09-03T13:12:28.840Z,0.20
2022-09-03T13:14:57.240Z,0.10
2022-09-03T13:17:49.432Z,0.00
2022-09-03T13:20:52.394Z,0.10
2022-09-03T13:23:42.404Z,0.10
2022-09-03T13:26:33.194Z,0.00
2022-09-03T13:29:22.895Z,0.05
2022-09-03T13:32:14.024Z,0.10
2022-09-03T13:34:52.704Z,0.15
2022-09-03T13:37:40.155Z,0.10
2022-09-03T13:40:31.075Z,0.00
2022-09-03T13:43:25.342Z,0.03
2022-09-03T13:46:26.525Z,0.10
2022-09-03T13:49:21.129Z,0.10
2022-09-03T13:51:52.248Z,0.10
2022-09-03T13:54:48.123Z,0.10
2022-09-03T13:57:38.740Z,0.20
2022-09-03T14:00:10.740Z,0.20
2022-09-03T14:02:52.692Z,0.10
2022-09-03T14:05:45.854Z,0.10
2022-09-03T14:08:38.785Z,0.10
2022-09-03T14:11:28.058Z,0.10
2022-09-03T14:14:31.735Z,0.10
2022-09-03T14:17:17.153Z,0.10
2022-09-03T14:19:53.458Z,0.17
2022-09-03T14:22:48.358Z,0.10
2022-09-03T14:25:17.722Z,0.20
2022-09-03T14:27:44.750Z,0.10
2022-09-03T14:30:35.943Z,0.20
2022-09-03T14:33:17.795Z,0.10
2022-09-03T14:36:20.437Z,0.15
2022-09-03T14:39:08.223Z,0.13
2022-09-03T14:41:54.441Z,0.10
2022-09-03T14:44:27.213Z,0.20
2022-09-03T14:46:56.883Z,0.10
2022-09-03T14:49:51.082Z,0.15
2022-09-03T14:52:51.661Z,0.10
2022-09-03T14:55:24.388Z,0.30
2022-09-03T14:58:13.020Z,0.10
2022-09-03T15:01:04.029Z,0.10
2022-09-03T15:04:08.816Z,0.10
2022-09-03T15:06:51.687Z,0.10
2022-09-03T15:09:25.627Z,0.38
2022-09-03T15:12:33.836Z,0.40
2022-09-03T15:15:04.313Z,0.10
2022-09-03T15:17:43.775Z,0.10
2022-09-03T15:20:25.750Z,0.10
2022-09-03T15:23:31.804Z,0.20
2022-09-03T15:26:22.225Z,0.15
2022-09-03T15:29:15.850Z,0.43
2022-09-03T15:32:01.168Z,0.10
2022-09-03T15:34:50.067Z,0.20
2022-09-03T15:37:47.280Z,0.20
2022-09-03T15:40:46.118Z,7.35
2022-09-03T15:43:18.148Z,0.52
2022-09-03T15:45:58.446Z,0.57
2022-09-03T15:48:43.277Z,0.40
2022-09-03T15:51:26.568Z,0.30
2022-09-03T15:53:58.819Z,0.30
2022-09-03T15:56:47.355Z,0.20
2022-09-03T15:59:19.898Z,1.17
2022-09-03T16:02:12.145Z,0.22
2022-09-03T16:05:08.630Z,0.40
2022-09-03T16:07:56.647Z,0.32
2022-09-03T16:10:25.826Z,0.40
2022-09-03T16:13:14.754Z,0.30
2022-09-03T16:15:50.276Z,0.50
2022-09-03T16:18:26.448Z,0.50
2022-09-03T16:21:08.350Z,0.50
2022-09-03T16:24:05.975Z,0.50
2022-09-03T16:26:53.251Z,0.40
2022-09-03T16:29:26.063Z,0.63
2022-09-03T16:32:17.604Z,0.52
2022-09-03T16:34:54.640Z,0.50
2022-09-03T16:37:24.309Z,0.57
2022-09-03T16:39:59.154Z,0.32
2022-09-03T16:42:34.522Z,0.32
2022-09-03T16:45:39.639Z,0.55
2022-09-03T16:48:46.989Z,0.25
2022-09-03T16:54:09.072Z,0.50
2022-09-03T16:56:41.718Z,0.93
2022-09-03T16:59:30.394Z,0.30
2022-09-03T17:02:23.789Z,0.32
2022-09-03T17:04:57.999Z,0.30
2022-09-03T17:07:36.896Z,1.10
2022-09-03T17:10:22.734Z,0.40
2022-09-03T17:13:02.457Z,0.40
2022-09-03T17:15:31.184Z,0.38
2022-09-03T17:18:30.888Z,0.38
2022-09-03T17:21:02.399Z,0.52
2022-09-03T17:23:38.212Z,0.38
2022-09-03T17:26:37.115Z,0.60
2022-09-03T17:29:13.965Z,0.50
2022-09-03T17:31:51.515Z,0.35
2022-09-03T17:34:27.580Z,0.40
2022-09-03T17:40:04.574Z,0.30
2022-09-03T17:42:40.974Z,0.82
2022-09-03T17:45:15.520Z,0.30
2022-09-03T17:47:42.451Z,0.38
2022-09-03T17:50:18.849Z,0.30
2022-09-03T17:52:51.358Z,0.35
2022-09-03T17:55:51.250Z,0.55
2022-09-03T17:58:42.355Z,0.50
2022-09-03T18:01:20.427Z,1.00
2022-09-03T18:04:31.935Z,1.50
2022-09-03T18:07:07.631Z,0.93
2022-09-03T18:09:56.573Z,0.55
2022-09-03T18:12:41.164Z,1.25
2022-09-03T18:15:32.812Z,0.60
2022-09-03T18:18:10.474Z,0.82
2022-09-03T18:21:25.513Z,0.50
2022-09-03T18:24:18.365Z,1.17
2022-09-03T18:27:18.953Z,0.40
2022-09-03T18:30:16.787Z,0.80
2022-09-03T18:33:07.342Z,0.98
2022-09-03T18:35:52.955Z,0.90
2022-09-03T18:38:44.304Z,1.00
2022-09-03T18:41:41.945Z,1.02
2022-09-03T18:45:12.007Z,0.70
2022-09-03T18:48:20.443Z,1.05
2022-09-03T18:51:25.276Z,0.82
2022-09-03T18:54:23.009Z,0.82
2022-09-03T18:57:10.936Z,0.85
2022-09-03T19:00:18.570Z,1.08
2022-09-03T19:03:16.298Z,1.02
2022-09-03T19:06:08.695Z,0.65
2022-09-03T19:09:08.836Z,1.10
2022-09-03T19:12:35.390Z,0.70
2022-09-03T19:15:41.501Z,1.23
2022-09-03T19:18:54.228Z,0.70
2022-09-03T19:22:00.175Z,0.90
2022-09-03T19:24:49.904Z,0.65
2022-09-03T19:28:08.721Z,0.88
2022-09-03T19:31:10.519Z,1.35
2022-09-03T19:34:17.744Z,1.02
2022-09-03T19:37:10.605Z,0.95
2022-09-03T19:40:09.119Z,1.08
2022-09-03T19:43:21.407Z,0.90
2022-09-03T19:46:21.676Z,1.15
2022-09-03T19:49:27.944Z,1.30
2022-09-03T19:52:40.869Z,1.13
2022-09-03T19:55:31.540Z,0.98
2022-09-03T19:58:42.012Z,0.90
2022-09-03T20:01:30.061Z,0.80
2022-09-03T20:05:14.216Z,0.80
2022-09-03T20:08:09.496Z,0.82
2022-09-03T20:10:43.525Z,0.68
2022-09-03T20:16:10.100Z,1.17
2022-09-03T20:19:05.102Z,0.93
2022-09-03T20:22:00.801Z,0.75
2022-09-03T20:24:47.190Z,1.17
2022-09-03T20:27:26.399Z,1.00
2022-09-03T20:30:01.963Z,1.10
2022-09-03T20:33:03.259Z,1.02
2022-09-03T20:35:57.094Z,0.65
2022-09-03T20:38:50.390Z,0.70
2022-09-03T20:41:37.170Z,1.02
2022-09-03T20:44:24.713Z,1.08
2022-09-03T20:47:32.802Z,1.45
2022-09-03T20:50:27.044Z,1.25
2022-09-03T20:53:12.666Z,1.27
2022-09-03T20:55:42.207Z,1.48
2022-09-03T20:58:24.586Z,0.90
2022-09-03T21:01:14.421Z,1.23
2022-09-03T21:04:08.383Z,1.60
2022-09-03T21:07:02.889Z,1.35
2022-09-03T21:09:33.079Z,1.70
2022-09-03T21:12:28.156Z,1.58
2022-09-03T21:15:04.304Z,0.85
2022-09-03T21:17:45.861Z,1.13
2022-09-03T21:20:43.361Z,1.33
2022-09-03T21:23:22.110Z,1.05
2022-09-03T21:26:08.263Z,1.33
2022-09-03T21:28:41.447Z,1.77
2022-09-03T21:31:30.103Z,1.17
2022-09-03T21:34:14.641Z,1.30
2022-09-03T21:36:43.629Z,1.00
2022-09-03T21:39:43.868Z,1.08
2022-09-03T21:42:27.807Z,1.38
2022-09-03T21:45:11.220Z,1.13
2022-09-03T21:47:41.619Z,1.35
2022-09-03T21:50:19.402Z,1.30
2022-09-03T21:52:51.777Z,1.70
2022-09-03T21:55:30.839Z,1.85
2022-09-03T21:58:22.500Z,1.58
2022-09-03T22:00:54.663Z,1.17
2022-09-03T22:03:21.749Z,1.73
2022-09-03T22:05:59.489Z,1.65
2022-09-03T22:08:55.704Z,1.77
2022-09-03T22:11:35.826Z,2.30
2022-09-03T22:14:36.450Z,2.03
2022-09-03T22:17:18.123Z,2.03
2022-09-03T22:19:46.036Z,1.52
2022-09-03T22:22:44.011Z,1.90
2022-09-03T22:25:16.232Z,3.15
2022-09-03T22:27:50.135Z,2.28
2022-09-03T22:30:21.627Z,2.20
2022-09-03T22:32:55.791Z,1.75
2022-09-03T22:35:27.336Z,1.55
2022-09-03T22:38:23.934Z,1.33
2022-09-03T22:40:53.642Z,2.22
2022-09-03T22:43:43.047Z,2.35
2022-09-03T22:46:17.592Z,2.40
2022-09-03T22:49:27.471Z,2.17
2022-09-03T22:52:10.624Z,1.80
2022-09-03T22:55:05.562Z,3.00
2022-09-03T22:57:35.872Z,2.00
2022-09-03T23:00:09.946Z,2.10
2022-09-03T23:02:37.642Z,1.77
2022-09-03T23:05:26.355Z,1.88
2022-09-03T23:08:15.421Z,2.10
2022-09-03T23:11:25.236Z,1.60
2022-09-03T23:14:06.081Z,1.90
2022-09-03T23:16:57.637Z,1.92
2022-09-03T23:19:45.346Z,2.45
2022-09-03T23:22:40.651Z,2.03
2022-09-03T23:25:15.099Z,1.95
2022-09-03T23:28:07.499Z,1.27
2022-09-03T23:30:34.496Z,1.85
2022-09-03T23:33:01.676Z,1.52
2022-09-03T23:35:38.161Z,1.52
2022-09-03T23:38:29.131Z,1.80
2022-09-03T23:40:58.066Z,1.88
2022-09-03T23:43:31.930Z,1.30
2022-09-03T23:46:09.485Z,1.98
2022-09-03T23:49:01.393Z,1.23
2022-09-03T23:51:44.867Z,0.98
2022-09-03T23:54:27.067Z,1.40
2022-09-03T23:57:24.789Z,0.95
